Kodiak, AK

10:42 AM AKST on February 13, 2016 (GMT -0900)
Baranof | | Change Station
CLOSE
Current Station
Personal Weather Station
Location: Kodiak, AK
Elevation: 85 ft
Nearby Weather Stations

Elev 85 ft 57.80 °N, 152.38 °W | Updated 1 minute ago

Light Rain
Light Rain
39.2 °F
Feels Like 39 °F
N
1.1
Wind Variable Wind from SSE

Today
High -- | Low -- °F
--% Chance of Precip.
Yesterday
High -- | Low -- °F
Precip. -- in
Pressure 29.26 in
Visibility 8.0 miles
Clouds Mostly Cloudy 1700 ft
Mostly Cloudy 2200 ft
Overcast 4000 ft
Windchill 39 °F
Dew Point 36 °F
Humidity 90%
Rainfall 0.20 in
Snow Depth Not available.
8:45 AM 6:03 PM
Waxing Crescent, 33% visible
METAR PADQ 131853Z 04006KT 8SM -RA BKN017 BKN022 OVC040 02/02 A2926 RMK AO2 UPB38E40 SLP907 P0005 T00170017 $
Pressure 29.26 in
Visibility 8.0 miles
Clouds Mostly Cloudy 1700 ft
Mostly Cloudy 2200 ft
Overcast 4000 ft
Windchill 39 °F
Dew Point 36 °F
Humidity 90%
Rainfall 0.20 in
Snow Depth Not available.
8:45 AM 6:03 PM
Waxing Crescent, 33% visible
METAR PADQ 131853Z 04006KT 8SM -RA BKN017 BKN022 OVC040 02/02 A2926 RMK AO2 UPB38E40 SLP907 P0005 T00170017 $

10-Day Weather Forecast

Almanac

Astronomy

Feb. 13, 2016 Rise Set
Actual Time
Civil Twilight
Nautical Twilight
Astronomical Twilight
Moon
Length of Visible Light
Length of Day
Tomorrow will be .
, % of the Moon is Illuminated

Today's Extremes

State Highs State Lows

Community

WunderPhotos

Upload Photos

1,892,642 photos uploaded!

WunderBlog® & News

Nearby

Air Quality

  Air Quality AQ Index Pollutant
Not available.

Snow Depth

Station Depth Elevation

Earthquake Activity

City Distance Mag. Time & Date
Minimum magnitude displayed is 2.5.

Coastal Water Temperatures

Place Temperature

Stations

Nearby Weather Stations

Station Location Temp. Windchill Dew Point Humidity Wind Precip. Elev Updated Type
                   

Watches & Warnings

There are currently no watches in effect.